Time;durP1;ratioP1;P1;durP2;ratioP2;P2;SDS_P1;SDS_P2;PMS_P1;PMS_P2;Temp;Humidity;BMP_temperature;BMP_pressure;BME280_temperature;BME280_humidity;BME280_pressure;Samples;Min_cycle;Max_cycle;Signal;HPM_P1;HPM_P2
2023/09/21 00:01:06;;;;;;;1.90;1.17;;;20.20;99.90;;;;;;5050906;28;20136;-49
2023/09/21 00:03:34;;;;;;;1.63;1.15;;;20.20;99.90;;;;;;5051032;28;20442;-50
2023/09/21 00:06:00;;;;;;;2.08;0.85;;;20.20;99.90;;;;;;5050973;28;20508;-51
2023/09/21 00:08:27;;;;;;;3.13;1.00;;;20.20;99.90;;;;;;5050482;28;20029;-50
2023/09/21 00:10:54;;;;;;;1.48;0.90;;;20.30;99.90;;;;;;5050485;28;20040;-49
2023/09/21 00:13:26;;;;;;;1.85;1.00;;;20.20;99.90;;;;;;5050737;28;20025;-49
2023/09/21 00:15:52;;;;;;;1.50;0.70;;;20.30;99.90;;;;;;5050734;28;20105;-49
2023/09/21 00:18:21;;;;;;;2.45;1.00;;;20.20;99.90;;;;;;5050200;28;20075;-50
2023/09/21 00:20:56;;;;;;;1.70;0.88;;;20.30;99.90;;;;;;5050434;28;20021;-49
2023/09/21 00:23:26;;;;;;;1.75;0.98;;;20.20;99.90;;;;;;5050743;28;20033;-49
2023/09/21 00:25:58;;;;;;;2.45;1.15;;;20.20;99.90;;;;;;5049548;28;20520;-49
2023/09/21 00:28:27;;;;;;;2.10;1.13;;;20.20;99.90;;;;;;5050322;28;20025;-49
2023/09/21 00:30:57;;;;;;;1.35;0.80;;;20.20;99.90;;;;;;5032665;28;20508;-49
2023/09/21 00:33:27;;;;;;;2.97;1.00;;;20.20;99.90;;;;;;5049680;28;20496;-51
2023/09/21 00:35:54;;;;;;;4.13;1.10;;;20.20;99.90;;;;;;5049630;28;20132;-49
2023/09/21 00:38:20;;;;;;;2.20;0.80;;;20.20;99.90;;;;;;5032950;28;20037;-50
2023/09/21 00:40:47;;;;;;;2.10;1.02;;;20.20;99.90;;;;;;5049201;28;20474;-52
2023/09/21 00:43:21;;;;;;;2.65;1.08;;;20.20;99.90;;;;;;5050540;28;20041;-53
2023/09/21 00:45:52;;;;;;;2.13;0.98;;;20.20;99.90;;;;;;5051815;28;20040;-51
2023/09/21 00:48:25;;;;;;;2.78;1.05;;;20.20;99.90;;;;;;5051553;28;20039;-51
2023/09/21 00:50:53;;;;;;;1.67;1.05;;;20.20;99.90;;;;;;5052309;28;20389;-52
2023/09/21 00:53:19;;;;;;;1.38;0.90;;;20.20;99.90;;;;;;5049997;28;20033;-53
2023/09/21 00:55:50;;;;;;;3.28;1.30;;;20.20;99.90;;;;;;5049115;28;20029;-54
2023/09/21 00:58:17;;;;;;;2.67;1.00;;;20.20;99.90;;;;;;5049032;28;20044;-52
2023/09/21 01:00:44;;;;;;;3.42;1.25;;;20.10;99.90;;;;;;5048639;28;20029;-54
2023/09/21 01:03:13;;;;;;;5.15;1.10;;;20.10;99.90;;;;;;5049104;28;20037;-50
2023/09/21 01:05:44;;;;;;;3.20;1.23;;;20.20;99.90;;;;;;5050385;28;20612;-50
2023/09/21 01:08:17;;;;;;;2.17;1.23;;;20.10;99.90;;;;;;5048784;28;20072;-50
2023/09/21 01:10:51;;;;;;;2.58;1.10;;;20.10;99.90;;;;;;5049941;28;20482;-49
2023/09/21 01:13:18;;;;;;;2.42;1.02;;;20.10;99.90;;;;;;5050303;28;20029;-48
2023/09/21 01:15:45;;;;;;;3.63;1.15;;;20.10;99.90;;;;;;5048879;28;20040;-49
2023/09/21 01:18:16;;;;;;;2.63;1.23;;;20.10;99.90;;;;;;5048983;28;20033;-49
2023/09/21 01:20:43;;;;;;;2.88;1.10;;;20.10;99.90;;;;;;5048536;28;20079;-50
2023/09/21 01:23:19;;;;;;;3.05;1.20;;;20.10;99.90;;;;;;5048748;28;20033;-50
2023/09/21 01:25:50;;;;;;;1.63;1.00;;;20.10;99.90;;;;;;5050465;28;20400;-50
2023/09/21 01:28:19;;;;;;;3.22;1.20;;;20.10;99.90;;;;;;5048900;28;20045;-54
2023/09/21 01:30:46;;;;;;;3.25;0.90;;;20.00;99.90;;;;;;5051736;28;20044;-53
2023/09/21 01:33:12;;;;;;;1.17;0.88;;;20.00;99.90;;;;;;5052478;28;20037;-51
2023/09/21 01:35:38;;;;;;;1.50;0.85;;;20.00;99.90;;;;;;5054018;28;20389;-51
2023/09/21 01:38:08;;;;;;;1.40;0.80;;;20.00;99.90;;;;;;5053597;28;20031;-53
2023/09/21 01:40:34;;;;;;;2.28;1.20;;;20.00;99.90;;;;;;5052083;28;20029;-52
2023/09/21 01:43:08;;;;;;;3.13;1.00;;;20.00;99.90;;;;;;5052689;28;20082;-52
2023/09/21 01:45:39;;;;;;;1.73;0.90;;;19.90;99.90;;;;;;5053725;28;20065;-53
2023/09/21 01:48:09;;;;;;;1.63;0.88;;;20.00;99.90;;;;;;5052396;28;20036;-54
2023/09/21 01:50:43;;;;;;;1.92;1.02;;;20.00;99.90;;;;;;5052406;28;20497;-52
2023/09/21 01:53:13;;;;;;;1.75;0.93;;;19.90;99.90;;;;;;5054027;28;20047;-50
2023/09/21 01:55:40;;;;;;;4.15;1.27;;;19.90;99.90;;;;;;5054156;28;20087;-53
2023/09/21 01:58:09;;;;;;;1.63;0.90;;;19.80;99.90;;;;;;5052052;28;20037;-54
2023/09/21 02:00:39;;;;;;;;;;;19.80;99.90;;;;;;5052626;28;20029;-52
2023/09/21 02:03:12;;;;;;;1.60;0.90;;;19.80;99.90;;;;;;5052133;28;19908;-52
2023/09/21 02:05:39;;;;;;;2.40;1.00;;;19.80;99.90;;;;;;5053424;28;20029;-54
2023/09/21 02:08:07;;;;;;;3.03;1.30;;;19.80;99.90;;;;;;5051657;28;20037;-52
2023/09/21 02:10:34;;;;;;;2.15;0.90;;;19.80;99.90;;;;;;5051328;28;20033;-53
2023/09/21 02:13:00;;;;;;;2.50;1.15;;;19.70;99.90;;;;;;5052033;28;20089;-53
2023/09/21 02:15:27;;;;;;;1.17;0.75;;;19.70;99.90;;;;;;5053190;28;20074;-52
2023/09/21 02:17:55;;;;;;;1.67;1.00;;;19.70;99.90;;;;;;5052973;28;20413;-54
2023/09/21 02:20:26;;;;;;;1.90;0.97;;;19.70;99.90;;;;;;5051361;28;20029;-54
2023/09/21 02:22:56;;;;;;;3.08;1.00;;;19.70;99.90;;;;;;5051513;28;20442;-54
2023/09/21 02:25:22;;;;;;;2.17;0.88;;;19.70;99.90;;;;;;5052747;28;20051;-53
2023/09/21 02:27:48;;;;;;;1.73;0.82;;;19.70;99.90;;;;;;5051644;28;20039;-54
2023/09/21 02:30:20;;;;;;;2.38;1.00;;;19.70;99.90;;;;;;5052348;28;20033;-53
2023/09/21 02:32:51;;;;;;;1.80;1.15;;;19.70;99.90;;;;;;5051362;28;20025;-51
2023/09/21 02:35:27;;;;;;;2.30;1.13;;;19.70;99.90;;;;;;5051518;28;20029;-53
2023/09/21 02:37:54;;;;;;;2.33;1.10;;;19.70;99.90;;;;;;5052628;28;20029;-54
2023/09/21 02:40:22;;;;;;;2.80;1.02;;;19.70;99.90;;;;;;5050470;28;20409;-53
2023/09/21 02:42:54;;;;;;;1.33;0.82;;;19.80;99.90;;;;;;5052496;28;20025;-52
2023/09/21 02:45:23;;;;;;;2.67;1.05;;;19.70;99.90;;;;;;5051129;28;20413;-52
2023/09/21 02:48:00;;;;;;;3.17;1.38;;;19.70;99.90;;;;;;5052462;28;20039;-51
2023/09/21 02:50:27;;;;;;;1.90;1.02;;;19.70;99.90;;;;;;5052156;28;20374;-52
2023/09/21 02:52:55;;;;;;;1.95;0.98;;;19.70;99.90;;;;;;5051087;28;20439;-51
2023/09/21 02:55:22;;;;;;;;;;;19.70;99.90;;;;;;5051634;28;20025;-52
2023/09/21 02:57:57;;;;;;;1.58;0.90;;;19.70;99.90;;;;;;5050920;28;19995;-54
2023/09/21 03:00:34;;;;;;;3.08;1.52;;;19.70;99.90;;;;;;5050489;28;20032;-52
2023/09/21 03:03:04;;;;;;;3.42;1.13;;;19.70;99.90;;;;;;5050891;28;20032;-54
2023/09/21 03:05:38;;;;;;;3.03;1.00;;;19.60;99.90;;;;;;5050624;28;20054;-54
2023/09/21 03:08:05;;;;;;;2.67;1.30;;;19.70;99.90;;;;;;5050374;28;20471;-54
2023/09/21 03:10:33;;;;;;;2.40;1.05;;;19.60;99.90;;;;;;5050088;28;20116;-53
2023/09/21 03:12:58;;;;;;;1.65;0.85;;;19.60;99.90;;;;;;5050756;28;20025;-53
2023/09/21 03:15:24;;;;;;;1.95;1.00;;;19.60;99.90;;;;;;5050817;28;20375;-54
2023/09/21 03:17:53;;;;;;;1.83;0.90;;;19.60;99.90;;;;;;5050565;28;20068;-52
2023/09/21 03:20:37;;;;;;;2.65;1.25;;;19.50;99.90;;;;;;5050217;28;20456;-52
2023/09/21 03:23:09;;;;;;;3.78;1.30;;;19.50;99.90;;;;;;5050563;28;20132;-52
2023/09/21 03:25:40;;;;;;;2.22;0.95;;;19.50;99.90;;;;;;5050212;28;20067;-53
2023/09/21 03:28:13;;;;;;;1.70;0.98;;;19.50;99.90;;;;;;5051528;28;20025;-50
2023/09/21 03:30:43;;;;;;;2.88;0.90;;;19.50;99.90;;;;;;5051163;28;20571;-48
2023/09/21 03:33:10;;;;;;;2.75;1.00;;;19.50;99.90;;;;;;5050159;28;20078;-52
2023/09/21 03:35:37;;;;;;;1.67;0.90;;;19.50;99.90;;;;;;5050161;28;20501;-52
2023/09/21 03:38:06;;;;;;;1.98;0.82;;;19.50;99.90;;;;;;5050143;28;20028;-54
2023/09/21 03:40:32;;;;;;;1.80;0.82;;;19.50;99.90;;;;;;5049887;28;20029;-54
2023/09/21 03:42:59;;;;;;;2.17;1.00;;;19.50;99.90;;;;;;5050277;28;20627;-54
2023/09/21 03:45:25;;;;;;;3.90;1.10;;;19.50;99.90;;;;;;5050385;28;20041;-51
2023/09/21 03:47:55;;;;;;;1.83;0.98;;;19.50;99.90;;;;;;5050239;28;20477;-52
2023/09/21 03:50:27;;;;;;;2.15;1.10;;;19.40;99.90;;;;;;5049557;28;20078;-51
2023/09/21 03:52:53;;;;;;;2.10;1.00;;;19.50;99.90;;;;;;5049548;28;20028;-54
2023/09/21 03:55:20;;;;;;;2.17;0.98;;;19.50;99.90;;;;;;5050043;28;20167;-52
2023/09/21 03:57:46;;;;;;;2.65;0.82;;;19.50;99.90;;;;;;5049723;28;20079;-51
2023/09/21 04:00:39;;;;;;;1.42;0.70;;;19.50;99.90;;;;;;5049781;28;20078;-51
2023/09/21 04:03:08;;;;;;;2.67;1.02;;;19.50;99.90;;;;;;5050872;28;20040;-53
2023/09/21 04:05:40;;;;;;;2.53;1.20;;;19.50;99.90;;;;;;5050242;28;20033;-51
2023/09/21 04:08:06;;;;;;;3.03;0.95;;;19.60;99.90;;;;;;5049465;28;20032;-49
2023/09/21 04:10:32;;;;;;;1.45;0.80;;;19.50;99.90;;;;;;5049272;28;20056;-49
2023/09/21 04:12:59;;;;;;;2.30;1.00;;;19.60;99.90;;;;;;5049651;28;20051;-54
2023/09/21 04:15:27;;;;;;;2.03;1.10;;;19.60;99.90;;;;;;5049712;28;20124;-53
2023/09/21 04:17:53;;;;;;;2.30;1.17;;;19.60;99.90;;;;;;5049426;28;20504;-52
2023/09/21 04:20:21;;;;;;;1.83;0.90;;;19.60;99.90;;;;;;5049182;28;20214;-50
2023/09/21 04:22:49;;;;;;;1.90;0.90;;;19.60;99.90;;;;;;5049359;28;20123;-53
2023/09/21 04:25:16;;;;;;;2.88;1.05;;;19.70;99.90;;;;;;5049494;28;20025;-54
2023/09/21 04:27:45;;;;;;;3.72;0.93;;;19.60;99.90;;;;;;5049369;28;20029;-53
2023/09/21 04:30:16;;;;;;;3.28;1.25;;;19.60;99.90;;;;;;5050343;28;20033;-51
2023/09/21 04:32:45;;;;;;;2.15;1.10;;;19.70;99.90;;;;;;5049694;28;20032;-54
2023/09/21 04:35:12;;;;;;;1.95;0.98;;;19.70;99.90;;;;;;5049752;28;20549;-50
2023/09/21 04:37:38;;;;;;;1.95;1.00;;;19.70;99.90;;;;;;5050840;28;20021;-53
2023/09/21 04:40:12;;;;;;;3.08;1.30;;;19.70;99.90;;;;;;5049522;28;20025;-52
2023/09/21 04:42:42;;;;;;;2.10;1.00;;;19.70;99.90;;;;;;5049424;28;20033;-53
2023/09/21 04:45:11;;;;;;;5.13;1.42;;;19.80;99.90;;;;;;5049432;28;20501;-49
2023/09/21 04:47:48;;;;;;;2.17;1.20;;;19.70;99.90;;;;;;5049335;28;20048;-51
2023/09/21 04:50:16;;;;;;;1.80;1.00;;;19.70;99.90;;;;;;5050307;28;20479;-53
2023/09/21 04:52:43;;;;;;;2.97;0.90;;;19.70;99.90;;;;;;5051210;28;20029;-53
2023/09/21 04:55:10;;;;;;;2.40;1.30;;;19.70;99.90;;;;;;5049481;28;20029;-49
2023/09/21 04:57:36;;;;;;;3.13;1.15;;;19.70;99.90;;;;;;5050849;28;20044;-53
2023/09/21 05:00:10;;;;;;;3.47;1.15;;;19.70;99.90;;;;;;5049057;28;20025;-49
2023/09/21 05:02:36;;;;;;;3.17;1.45;;;19.70;99.90;;;;;;5049458;28;20032;-48
2023/09/21 05:05:03;;;;;;;3.40;1.10;;;19.70;99.90;;;;;;5052920;28;20021;-49
2023/09/21 05:07:28;;;;;;;1.65;0.93;;;19.70;99.90;;;;;;5054800;28;20535;-50
2023/09/21 05:09:55;;;;;;;2.83;1.10;;;19.70;99.90;;;;;;5052719;28;20432;-49
2023/09/21 05:12:20;;;;;;;7.60;2.83;;;19.60;99.90;;;;;;5054374;28;20029;-49
2023/09/21 05:14:47;;;;;;;2.63;1.00;;;19.60;99.90;;;;;;5053263;28;20025;-49
2023/09/21 05:17:17;;;;;;;6.53;3.35;;;19.60;99.90;;;;;;5054410;28;20112;-49
2023/09/21 05:19:43;;;;;;;2.78;1.45;;;19.60;99.90;;;;;;5054251;28;20496;-49
2023/09/21 05:22:09;;;;;;;9.07;4.60;;;19.60;99.90;;;;;;5054706;28;20111;-48
2023/09/21 05:24:36;;;;;;;3.28;1.60;;;19.60;99.90;;;;;;5054335;28;20524;-49
2023/09/21 05:27:02;;;;;;;11.60;5.97;;;19.60;99.90;;;;;;5054235;28;20075;-49
2023/09/21 05:29:28;;;;;;;4.18;1.60;;;19.60;99.90;;;;;;5053983;28;20044;-50
2023/09/21 05:31:54;;;;;;;2.95;1.30;;;19.60;99.90;;;;;;5054220;28;20029;-49
2023/09/21 05:34:20;;;;;;;3.17;1.70;;;19.60;99.90;;;;;;5053348;28;20075;-49
2023/09/21 05:36:47;;;;;;;7.43;2.95;;;19.60;99.90;;;;;;5054173;28;20481;-50
2023/09/21 05:39:16;;;;;;;7.15;3.50;;;19.60;99.90;;;;;;5054020;28;20052;-49
2023/09/21 05:41:49;;;;;;;4.50;1.80;;;19.60;99.90;;;;;;5054314;28;20051;-51
2023/09/21 05:44:15;;;;;;;14.13;6.40;;;19.50;99.90;;;;;;5054363;28;20445;-49
2023/09/21 05:46:41;;;;;;;4.32;2.15;;;19.50;99.90;;;;;;5053987;28;20089;-49
2023/09/21 05:49:17;;;;;;;3.25;1.40;;;19.50;99.90;;;;;;5053637;28;20112;-49
2023/09/21 05:51:44;;;;;;;3.90;1.33;;;19.50;99.90;;;;;;5053666;28;20064;-50
2023/09/21 05:54:10;;;;;;;1.52;1.00;;;19.40;99.90;;;;;;5053696;28;20037;-52
2023/09/21 05:56:36;;;;;;;3.33;1.10;;;19.40;99.90;;;;;;5053518;28;20037;-48
2023/09/21 05:59:03;;;;;;;3.33;1.20;;;19.30;99.90;;;;;;5053060;28;20048;-49
2023/09/21 06:01:32;;;;;;;2.78;1.30;;;19.30;99.90;;;;;;5053778;28;20044;-49
2023/09/21 06:03:59;;;;;;;3.00;1.58;;;19.40;99.90;;;;;;5052339;28;20500;-50
2023/09/21 06:06:28;;;;;;;5.18;2.88;;;19.40;99.90;;;;;;5053570;28;20036;-49
2023/09/21 06:08:57;;;;;;;2.25;1.10;;;19.30;99.90;;;;;;5053571;28;20125;-48
2023/09/21 06:11:26;;;;;;;10.48;5.07;;;19.40;99.90;;;;;;5053692;28;20059;-49
2023/09/21 06:13:55;;;;;;;5.15;2.33;;;19.40;99.90;;;;;;5053634;28;20070;-48
2023/09/21 06:16:21;;;;;;;3.03;1.40;;;19.40;99.90;;;;;;5052898;28;20059;-50
2023/09/21 06:18:50;;;;;;;3.25;1.58;;;19.50;99.90;;;;;;5054427;28;20033;-49
2023/09/21 06:21:16;;;;;;;3.05;1.50;;;19.50;99.90;;;;;;5054295;28;20071;-49
2023/09/21 06:23:44;;;;;;;3.85;1.90;;;19.50;99.90;;;;;;5053943;28;20041;-49
2023/09/21 06:26:14;;;;;;;10.57;5.47;;;19.60;99.90;;;;;;5053625;28;20123;-50
2023/09/21 06:28:43;;;;;;;3.03;1.70;;;19.70;99.90;;;;;;5052784;28;20154;-50
2023/09/21 06:31:10;;;;;;;4.40;2.35;;;19.70;99.90;;;;;;5052601;28;20456;-51
2023/09/21 06:33:35;;;;;;;6.05;3.15;;;19.70;99.90;;;;;;5052828;28;20397;-50
2023/09/21 06:36:01;;;;;;;6.65;1.77;;;19.70;99.90;;;;;;5052714;28;20025;-50
2023/09/21 06:38:26;;;;;;;4.85;2.05;;;19.70;99.90;;;;;;5053060;28;20060;-48
2023/09/21 06:40:52;;;;;;;3.60;1.63;;;19.70;99.90;;;;;;5052607;28;20086;-49
2023/09/21 06:43:18;;;;;;;3.13;1.63;;;19.80;99.90;;;;;;5052633;28;20025;-49
2023/09/21 06:45:44;;;;;;;2.47;1.50;;;19.80;99.90;;;;;;5052569;28;20052;-49
2023/09/21 06:48:11;;;;;;;3.53;1.30;;;19.80;99.90;;;;;;5052463;28;20401;-49
2023/09/21 06:50:40;;;;;;;2.60;1.30;;;19.70;99.90;;;;;;5051883;28;20041;-50
2023/09/21 06:53:08;;;;;;;2.58;1.25;;;19.60;99.90;;;;;;5052403;28;20371;-50
2023/09/21 06:55:34;;;;;;;2.35;1.20;;;19.60;99.90;;;;;;5052603;28;20391;-51
2023/09/21 06:58:00;;;;;;;5.15;1.42;;;19.70;99.90;;;;;;5052249;28;20196;-51
2023/09/21 07:00:26;;;;;;;3.63;1.10;;;19.70;99.90;;;;;;5052057;28;20041;-51
2023/09/21 07:02:53;;;;;;;3.60;1.08;;;19.70;99.90;;;;;;5052335;28;20029;-54
2023/09/21 07:05:19;;;;;;;2.88;1.00;;;19.80;99.90;;;;;;5052363;28;20420;-50
2023/09/21 07:07:45;;;;;;;1.65;1.00;;;19.80;99.90;;;;;;5052078;28;20029;-49
2023/09/21 07:10:11;;;;;;;3.50;1.42;;;19.80;99.90;;;;;;5051470;28;20029;-49
2023/09/21 07:12:39;;;;;;;4.00;1.30;;;19.80;99.90;;;;;;5052068;28;20456;-48
2023/09/21 07:15:07;;;;;;;3.15;1.25;;;19.80;99.90;;;;;;5052278;28;20496;-50
2023/09/21 07:17:34;;;;;;;2.88;1.15;;;19.80;99.90;;;;;;5052032;28;20033;-51
2023/09/21 07:20:00;;;;;;;3.42;1.15;;;19.80;99.90;;;;;;5051637;28;20039;-52
2023/09/21 07:22:26;;;;;;;3.33;1.45;;;19.80;99.90;;;;;;5050571;28;20033;-51
2023/09/21 07:24:51;;;;;;;3.97;1.30;;;19.80;99.90;;;;;;5052201;28;20029;-50
2023/09/21 07:27:17;;;;;;;3.55;1.33;;;19.90;99.90;;;;;;5050824;28;20021;-48
2023/09/21 07:29:43;;;;;;;4.95;1.20;;;19.90;99.90;;;;;;5051758;28;20079;-50
2023/09/21 07:32:10;;;;;;;3.15;1.40;;;19.90;99.90;;;;;;5051946;28;20033;-51
2023/09/21 07:34:36;;;;;;;4.63;1.85;;;19.90;99.90;;;;;;5051629;28;20150;-49
2023/09/21 07:37:02;;;;;;;9.10;4.35;;;20.00;99.90;;;;;;5050484;28;20100;-53
2023/09/21 07:39:28;;;;;;;3.42;1.38;;;20.00;99.90;;;;;;5051784;28;20036;-49
2023/09/21 07:41:54;;;;;;;7.55;3.90;;;20.10;99.90;;;;;;5051669;28;20487;-54
2023/09/21 07:44:22;;;;;;;3.90;1.83;;;20.20;99.90;;;;;;5051741;28;20036;-51
2023/09/21 07:46:50;;;;;;;2.55;1.20;;;20.20;99.90;;;;;;5051643;28;20521;-54
2023/09/21 07:49:17;;;;;;;3.85;1.02;;;20.30;99.90;;;;;;5051237;28;20048;-54
2023/09/21 07:51:43;;;;;;;4.78;2.03;;;20.30;99.90;;;;;;5051358;28;20033;-53
2023/09/21 07:54:09;;;;;;;4.22;1.30;;;20.40;99.90;;;;;;5051194;28;20462;-52
2023/09/21 07:56:36;;;;;;;3.53;1.45;;;20.50;99.90;;;;;;5051242;28;20021;-54
2023/09/21 07:59:02;;;;;;;6.70;1.80;;;20.50;99.90;;;;;;5050880;28;20124;-52
2023/09/21 08:01:28;;;;;;;2.63;1.15;;;20.60;99.90;;;;;;5051213;28;20037;-54
2023/09/21 08:03:54;;;;;;;3.65;1.83;;;20.80;99.90;;;;;;5051368;28;20075;-54
2023/09/21 08:06:22;;;;;;;2.25;1.10;;;21.10;99.90;;;;;;5051268;28;20115;-51
2023/09/21 08:08:50;;;;;;;2.17;1.30;;;21.30;99.90;;;;;;5050743;28;20477;-53
2023/09/21 08:11:16;;;;;;;4.55;2.08;;;21.50;99.90;;;;;;5050877;28;20521;-49
2023/09/21 08:13:41;;;;;;;2.50;1.17;;;21.60;99.90;;;;;;5051085;28;20021;-50
2023/09/21 08:16:08;;;;;;;3.58;1.48;;;21.60;99.90;;;;;;5049819;28;20359;-49
2023/09/21 08:18:36;;;;;;;7.25;2.97;;;21.50;99.90;;;;;;5050613;28;20033;-51
2023/09/21 08:21:06;;;;;;;4.45;1.88;;;21.40;99.90;;;;;;5050865;28;20119;-50
2023/09/21 08:23:32;;;;;;;3.35;1.80;;;21.50;99.90;;;;;;5049503;28;20064;-53
2023/09/21 08:25:58;;;;;;;4.10;2.33;;;21.50;99.90;;;;;;5050929;28;20071;-50
2023/09/21 08:28:24;;;;;;;5.50;1.92;;;21.60;99.90;;;;;;5050799;28;20037;-50
2023/09/21 08:30:52;;;;;;;3.78;1.90;;;21.70;99.90;;;;;;5049450;28;20036;-51
2023/09/21 08:33:17;;;;;;;5.05;1.85;;;21.80;99.90;;;;;;5050714;28;20448;-54
2023/09/21 08:35:46;;;;;;;2.92;1.50;;;21.80;99.90;;;;;;5050877;28;20104;-54
2023/09/21 08:38:11;;;;;;;3.10;1.45;;;21.90;99.90;;;;;;5051485;28;20482;-53
2023/09/21 08:40:38;;;;;;;4.13;1.55;;;22.00;99.90;;;;;;5054569;28;20108;-54
2023/09/21 08:43:04;;;;;;;2.90;1.52;;;22.00;99.90;;;;;;5054998;28;20075;-53
2023/09/21 08:45:30;;;;;;;3.38;1.27;;;22.10;99.90;;;;;;5054951;28;20327;-50
2023/09/21 08:47:56;;;;;;;2.58;1.58;;;22.10;99.90;;;;;;5053479;28;20032;-52
2023/09/21 08:50:24;;;;;;;3.08;1.20;;;22.20;99.90;;;;;;5054422;28;20128;-50
2023/09/21 08:52:53;;;;;;;2.55;1.27;;;22.20;99.90;;;;;;5054724;28;20158;-52
2023/09/21 08:55:21;;;;;;;2.58;1.63;;;22.20;99.90;;;;;;5054780;28;20037;-52
2023/09/21 08:57:47;;;;;;;3.10;0.97;;;22.30;99.90;;;;;;5054897;28;20074;-53
2023/09/21 09:00:13;;;;;;;2.88;1.50;;;22.40;99.90;;;;;;5054808;28;20490;-53
2023/09/21 09:02:38;;;;;;;3.97;1.55;;;22.50;99.90;;;;;;5054875;28;20056;-52
2023/09/21 09:05:08;;;;;;;2.88;1.33;;;22.60;99.90;;;;;;5054941;28;20060;-51
2023/09/21 09:07:41;;;;;;;9.13;1.60;;;22.60;99.90;;;;;;5054855;28;20401;-50
2023/09/21 09:10:13;;;;;;;4.05;2.00;;;22.60;99.90;;;;;;5054382;28;20050;-53
2023/09/21 09:12:41;;;;;;;6.07;1.58;;;22.70;99.90;;;;;;5054514;28;20122;-53
2023/09/21 09:15:08;;;;;;;4.50;1.50;;;22.80;99.90;;;;;;5054853;28;20040;-49
2023/09/21 09:17:35;;;;;;;2.70;1.20;;;22.90;99.90;;;;;;5054029;28;20048;-54
2023/09/21 09:20:05;;;;;;;3.67;1.45;;;23.00;99.90;;;;;;5054395;28;20546;-52
2023/09/21 09:22:34;;;;;;;2.38;1.20;;;22.90;99.90;;;;;;5054453;28;20029;-53
2023/09/21 09:25:11;;;;;;;;;;;22.80;99.90;;;;;;5055086;28;20040;-53
2023/09/21 09:27:42;;;;;;;2.63;1.10;;;22.70;99.90;;;;;;5054307;28;20373;-52
2023/09/21 09:30:08;;;;;;;6.97;2.75;;;22.60;99.90;;;;;;5053570;28;20033;-52
2023/09/21 09:32:35;;;;;;;3.80;1.65;;;22.60;99.90;;;;;;5054442;28;20492;-52
2023/09/21 09:35:05;;;;;;;3.03;1.25;;;22.70;99.90;;;;;;5052936;28;20029;-51
2023/09/21 09:37:34;;;;;;;4.13;1.50;;;22.60;99.90;;;;;;5054146;28;20093;-53
2023/09/21 09:40:12;;;;;;;;;;;22.60;99.90;;;;;;5054098;28;20507;-51
2023/09/21 09:42:41;;;;;;;;;;;22.60;99.90;;;;;;5054406;28;19959;-54
2023/09/21 09:45:21;;;;;;;4.40;1.27;;;22.70;99.90;;;;;;5054109;28;19935;-53
2023/09/21 09:47:54;;;;;;;3.05;1.85;;;22.70;99.90;;;;;;5053770;28;20040;-52
2023/09/21 09:50:24;;;;;;;3.42;1.40;;;22.70;99.90;;;;;;5052164;28;20037;-52
2023/09/21 09:52:55;;;;;;;7.35;3.03;;;22.70;99.90;;;;;;5052595;28;20036;-53
2023/09/21 09:55:25;;;;;;;8.95;3.75;;;22.80;99.90;;;;;;5053774;28;20432;-53
2023/09/21 09:57:55;;;;;;;5.15;1.65;;;22.80;99.90;;;;;;5053525;28;20068;-50
2023/09/21 10:00:22;;;;;;;3.03;1.40;;;22.70;99.90;;;;;;5053537;28;20389;-53
2023/09/21 10:02:49;;;;;;;3.97;1.63;;;22.70;99.90;;;;;;5053620;28;20481;-53
2023/09/21 10:05:19;;;;;;;7.03;1.80;;;22.60;99.90;;;;;;5052316;28;20033;-51
2023/09/21 10:07:49;;;;;;;4.30;1.40;;;22.40;99.90;;;;;;5051927;28;20504;-51
2023/09/21 10:10:18;;;;;;;4.05;2.20;;;22.30;99.90;;;;;;5052993;28;20037;-48
2023/09/21 10:12:45;;;;;;;5.15;1.30;;;22.30;99.90;;;;;;5051866;28;20474;-50
2023/09/21 10:15:14;;;;;;;2.78;1.50;;;22.30;99.90;;;;;;5053316;28;20036;-48
2023/09/21 10:17:42;;;;;;;3.20;1.42;;;22.30;99.90;;;;;;5053218;28;20063;-51
2023/09/21 10:20:15;;;;;;;5.05;1.65;;;22.30;99.90;;;;;;5052896;28;20474;-52
2023/09/21 10:22:43;;;;;;;2.70;1.58;;;22.40;99.90;;;;;;5053293;28;20128;-53
2023/09/21 10:25:10;;;;;;;4.25;1.42;;;22.40;99.90;;;;;;5052942;28;20124;-49
2023/09/21 10:27:38;;;;;;;2.95;1.55;;;22.50;99.90;;;;;;5053069;28;20484;-48
2023/09/21 10:30:07;;;;;;;4.53;1.30;;;22.50;99.90;;;;;;5052724;28;20082;-51
2023/09/21 10:32:44;;;;;;;2.53;1.30;;;22.40;99.90;;;;;;5051625;28;20090;-52
2023/09/21 10:35:21;;;;;;;3.20;1.50;;;22.50;99.90;;;;;;5052995;28;20155;-52
2023/09/21 10:37:51;;;;;;;2.05;1.10;;;22.50;99.90;;;;;;5052665;28;20123;-50
2023/09/21 10:40:24;;;;;;;3.58;1.30;;;22.40;99.90;;;;;;5052620;28;20181;-50
2023/09/21 10:42:51;;;;;;;2.17;1.20;;;22.50;99.90;;;;;;5052799;28;20036;-49
2023/09/21 10:45:16;;;;;;;3.17;1.33;;;22.80;99.90;;;;;;5052717;28;20063;-49
2023/09/21 10:47:44;;;;;;;3.67;1.30;;;22.90;99.90;;;;;;5053134;28;20049;-48
2023/09/21 10:50:14;;;;;;;3.00;1.20;;;22.90;99.90;;;;;;5052149;28;20068;-51
2023/09/21 10:52:42;;;;;;;2.92;1.10;;;22.90;99.90;;;;;;5052530;28;20025;-50
2023/09/21 10:55:09;;;;;;;2.28;1.40;;;22.80;99.90;;;;;;5052753;28;20029;-49
2023/09/21 10:57:35;;;;;;;2.00;1.08;;;22.80;99.90;;;;;;5052178;28;20501;-49
2023/09/21 11:00:04;;;;;;;2.40;1.25;;;22.70;99.90;;;;;;5052335;28;20035;-49
2023/09/21 11:02:31;;;;;;;3.45;1.23;;;22.70;99.90;;;;;;5052058;28;20025;-50
2023/09/21 11:04:58;;;;;;;2.35;1.17;;;22.70;99.90;;;;;;5052369;28;20079;-50
2023/09/21 11:07:24;;;;;;;5.68;1.15;;;22.70;99.90;;;;;;5052295;28;20033;-49
2023/09/21 11:09:50;;;;;;;4.00;1.25;;;22.70;99.90;;;;;;5051952;28;20064;-49
2023/09/21 11:12:17;;;;;;;2.60;1.05;;;22.50;99.90;;;;;;5052148;28;20063;-48
2023/09/21 11:14:48;;;;;;;3.03;1.50;;;22.30;99.90;;;;;;5052462;28;20029;-49
2023/09/21 11:17:16;;;;;;;2.70;1.40;;;22.30;99.90;;;;;;5052604;28;20025;-51
2023/09/21 11:19:42;;;;;;;2.22;1.17;;;22.20;99.90;;;;;;5052240;28;20362;-49
2023/09/21 11:22:12;;;;;;;2.70;1.20;;;22.10;99.90;;;;;;5052713;28;20118;-53
2023/09/21 11:24:38;;;;;;;2.67;1.17;;;22.10;99.90;;;;;;5053833;28;20087;-49
2023/09/21 11:27:09;;;;;;;4.35;1.23;;;22.10;99.90;;;;;;5054220;28;20069;-49
2023/09/21 11:29:38;;;;;;;3.97;1.20;;;22.10;99.90;;;;;;5053074;28;20033;-50
2023/09/21 11:32:09;;;;;;;2.70;1.25;;;22.00;99.90;;;;;;5053608;28;20120;-50
2023/09/21 11:34:39;;;;;;;1.83;1.05;;;22.00;99.90;;;;;;5051794;28;20389;-52
2023/09/21 11:37:10;;;;;;;1.60;1.08;;;22.00;99.90;;;;;;5051497;28;20120;-50
2023/09/21 11:39:39;;;;;;;3.38;1.33;;;21.90;99.90;;;;;;5051123;28;20032;-53
2023/09/21 11:42:10;;;;;;;3.03;1.30;;;21.90;99.90;;;;;;5051428;28;20040;-48
2023/09/21 11:44:37;;;;;;;3.22;1.23;;;21.90;99.90;;;;;;5051609;28;20037;-52
2023/09/21 11:47:07;;;;;;;2.70;1.02;;;21.90;99.90;;;;;;5051574;28;20065;-52
2023/09/21 11:49:37;;;;;;;2.67;1.05;;;21.80;99.90;;;;;;5051185;28;20029;-49
2023/09/21 11:52:03;;;;;;;4.30;1.30;;;21.80;99.90;;;;;;5051529;28;20497;-52
2023/09/21 11:54:30;;;;;;;2.33;1.20;;;21.80;99.90;;;;;;5051492;28;20046;-49
2023/09/21 11:56:56;;;;;;;2.67;1.40;;;21.60;99.90;;;;;;5051567;28;20497;-51
2023/09/21 11:59:22;;;;;;;3.05;1.40;;;21.70;99.90;;;;;;5051086;28;20071;-52
2023/09/21 12:01:49;;;;;;;2.50;1.25;;;21.60;99.90;;;;;;5050077;28;20052;-50
2023/09/21 12:04:17;;;;;;;3.45;1.55;;;21.60;99.90;;;;;;5051225;28;20396;-50
2023/09/21 12:06:44;;;;;;;4.22;1.48;;;21.50;99.90;;;;;;5051062;28;20040;-54
2023/09/21 12:09:13;;;;;;;5.25;1.35;;;21.40;99.90;;;;;;5050285;28;20047;-53
2023/09/21 12:11:38;;;;;;;;;;;21.40;99.90;;;;;;5051488;28;20043;-52
2023/09/21 12:14:04;;;;;;;4.00;1.70;;;21.40;99.90;;;;;;5050504;28;19909;-54
2023/09/21 12:16:31;;;;;;;3.53;1.10;;;21.50;99.90;;;;;;5051207;28;20045;-49
2023/09/21 12:18:59;;;;;;;1.73;1.10;;;21.40;99.90;;;;;;5050748;28;20029;-51
2023/09/21 12:21:25;;;;;;;2.83;1.25;;;21.40;99.90;;;;;;5050972;28;20045;-52
2023/09/21 12:23:51;;;;;;;4.82;1.65;;;21.40;99.90;;;;;;5051162;28;20291;-49
2023/09/21 12:26:17;;;;;;;2.83;1.30;;;21.40;99.90;;;;;;5049839;28;20373;-53
2023/09/21 12:28:44;;;;;;;4.40;1.80;;;21.30;99.90;;;;;;5050691;28;20474;-51
2023/09/21 12:31:10;;;;;;;2.97;1.67;;;21.30;99.90;;;;;;5050857;28;20120;-53
2023/09/21 12:33:36;;;;;;;3.83;1.70;;;21.30;99.90;;;;;;5050906;28;20064;-51
2023/09/21 12:36:05;;;;;;;4.38;1.40;;;21.30;99.90;;;;;;5051103;28;20025;-50
2023/09/21 12:38:32;;;;;;;;;;;21.30;99.90;;;;;;5051680;28;20425;-53
2023/09/21 12:40:59;;;;;;;3.03;1.40;;;21.20;99.90;;;;;;5049662;28;19915;-54
2023/09/21 12:43:24;;;;;;;6.00;1.55;;;21.20;99.90;;;;;;5049889;28;20478;-52
2023/09/21 12:45:50;;;;;;;3.50;1.60;;;21.10;99.90;;;;;;5050898;28;20082;-53
2023/09/21 12:48:15;;;;;;;4.22;1.67;;;21.10;99.90;;;;;;5050795;28;20032;-50
2023/09/21 12:50:41;;;;;;;3.65;1.38;;;21.20;99.90;;;;;;5050291;28;20037;-51
2023/09/21 12:53:09;;;;;;;5.40;1.52;;;21.20;99.90;;;;;;5050770;28;20068;-52